Time;durP1;ratioP1;P1;durP2;ratioP2;P2;SDS_P1;SDS_P2;PMS_P1;PMS_P2;Temp;Humidity;BMP_temperature;BMP_pressure;BME280_temperature;BME280_humidity;BME280_pressure;Samples;Min_cycle;Max_cycle;Signal;HPM_P1;HPM_P2
2023/08/09 00:02:14;;;;;;;3.23;2.73;;;;;;;;;;4993598;28;20238;-77
2023/08/09 00:04:40;;;;;;;4.30;3.27;;;;;;;;;;5027193;28;20284;-77
2023/08/09 00:07:06;;;;;;;5.27;3.10;;;;;;;;;;5030719;28;20276;-77
2023/08/09 00:09:32;;;;;;;4.80;3.20;;;;;;;;;;5030174;28;20735;-77
2023/08/09 00:11:59;;;;;;;4.00;2.90;;;;;;;;;;5027727;28;20209;-76
2023/08/09 00:14:25;;;;;;;4.43;3.00;;;;;;;;;;5028398;28;20178;-77
2023/08/09 00:16:51;;;;;;;3.50;2.83;;;;;;;;;;5024997;28;20612;-77
2023/08/09 00:19:17;;;;;;;3.43;2.77;;;;;;;;;;5028489;28;20285;-77
2023/08/09 00:21:43;;;;;;;4.10;3.10;;;;;;;;;;5028337;28;20202;-77
2023/08/09 00:24:10;;;;;;;3.50;3.00;;;;;;;;;;5009359;28;20267;-77
2023/08/09 00:26:36;;;;;;;4.37;3.10;;;;;;;;;;5057514;22;20249;-78
2023/08/09 00:29:02;;;;;;;4.33;2.93;;;;;;;;;;5028284;28;20269;-78
2023/08/09 00:31:29;;;;;;;4.37;2.40;;;;;;;;;;5033259;28;20178;-78
2023/08/09 00:33:55;;;;;;;4.30;2.90;;;;;;;;;;5030903;28;20181;-76
2023/08/09 00:36:21;;;;;;;5.00;2.90;;;;;;;;;;5037492;28;20700;-77
2023/08/09 00:38:47;;;;;;;5.37;2.87;;;;;;;;;;5027743;28;20269;-77
2023/08/09 00:41:13;;;;;;;4.07;2.90;;;;;;;;;;5022111;28;20552;-76
2023/08/09 00:43:39;;;;;;;4.40;3.10;;;;;;;;;;5024415;28;20657;-76
2023/08/09 00:46:06;;;;;;;5.17;2.93;;;;;;;;;;5000226;28;20644;-76
2023/08/09 00:48:32;;;;;;;4.47;2.97;;;;;;;;;;5018099;28;20554;-76
2023/08/09 00:50:58;;;;;;;4.10;2.93;;;;;;;;;;4988543;28;20194;-77
2023/08/09 00:53:25;;;;;;;3.47;2.83;;;;;;;;;;5001767;28;20190;-76
2023/08/09 00:55:51;;;;;;;4.87;3.00;;;;;;;;;;5002200;28;20707;-76
2023/08/09 00:58:17;;;;;;;5.90;3.17;;;;;;;;;;5011299;28;20214;-76
2023/08/09 01:00:43;;;;;;;4.03;2.80;;;;;;;;;;5003152;28;20205;-76
2023/08/09 01:03:10;;;;;;;4.20;2.60;;;;;;;;;;5000591;28;20975;-76
2023/08/09 01:05:41;;;;;;;2.80;2.60;;;;;;;;;;5017875;28;20239;-76
2023/08/09 01:08:12;;;;;;;2.77;2.57;;;;;;;;;;5014735;28;20209;-76
2023/08/09 01:10:47;;;;;;;3.27;2.90;;;;;;;;;;5018528;28;20212;-76
2023/08/09 01:13:19;;;;;;;3.40;2.53;;;;;;;;;;5009850;28;20190;-76
2023/08/09 01:15:45;;;;;;;4.10;2.80;;;;;;;;;;5019326;28;20584;-76
2023/08/09 01:18:11;;;;;;;3.30;2.80;;;;;;;;;;5021103;28;20241;-76
2023/08/09 01:20:38;;;;;;;3.40;2.60;;;;;;;;;;5019915;28;20182;-76
2023/08/09 01:23:06;;;;;;;5.60;2.93;;;;;;;;;;5016240;28;20260;-77
2023/08/09 01:25:32;;;;;;;3.60;3.00;;;;;;;;;;5010734;28;20184;-77
2023/08/09 01:27:59;;;;;;;3.33;2.63;;;;;;;;;;5012593;28;20662;-76
2023/08/09 01:30:25;;;;;;;4.90;2.73;;;;;;;;;;5005813;28;20259;-76
2023/08/09 01:32:53;;;;;;;4.77;2.63;;;;;;;;;;5006012;28;20197;-76
2023/08/09 01:35:20;;;;;;;4.40;2.87;;;;;;;;;;5001346;28;20501;-77
2023/08/09 01:37:46;;;;;;;3.47;2.50;;;;;;;;;;5017432;28;20834;-77
2023/08/09 01:40:14;;;;;;;3.87;2.20;;;;;;;;;;5015219;28;20310;-76
2023/08/09 01:42:41;;;;;;;5.50;2.77;;;;;;;;;;4989096;28;20215;-76
2023/08/09 01:45:08;;;;;;;3.80;3.03;;;;;;;;;;5011733;28;20372;-76
2023/08/09 01:47:35;;;;;;;4.63;2.90;;;;;;;;;;5012703;28;20214;-76
2023/08/09 01:50:01;;;;;;;3.83;2.87;;;;;;;;;;5031306;28;20190;-76
2023/08/09 01:52:27;;;;;;;4.63;2.83;;;;;;;;;;5005037;28;20272;-76
2023/08/09 01:54:53;;;;;;;3.57;2.60;;;;;;;;;;5001361;28;20195;-76
2023/08/09 01:57:20;;;;;;;5.13;2.90;;;;;;;;;;4995012;28;20260;-77
2023/08/09 01:59:46;;;;;;;3.57;2.67;;;;;;;;;;5005250;28;20200;-76
2023/08/09 02:02:13;;;;;;;4.87;2.80;;;;;;;;;;5007167;28;20214;-76
2023/08/09 02:04:40;;;;;;;3.90;2.93;;;;;;;;;;5011310;28;20182;-76
2023/08/09 02:07:06;;;;;;;3.20;2.50;;;;;;;;;;5036341;28;20229;-76
2023/08/09 02:09:32;;;;;;;5.53;3.20;;;;;;;;;;5003714;28;20175;-77
2023/08/09 02:11:58;;;;;;;3.80;2.63;;;;;;;;;;5020404;28;20542;-77
2023/08/09 02:14:24;;;;;;;5.73;2.60;;;;;;;;;;5036851;28;20189;-77
2023/08/09 02:16:51;;;;;;;5.70;2.60;;;;;;;;;;4990220;28;20206;-76
2023/08/09 02:19:17;;;;;;;3.40;2.73;;;;;;;;;;5006153;28;20660;-76
2023/08/09 02:21:43;;;;;;;5.10;2.80;;;;;;;;;;5014386;28;20230;-76
2023/08/09 02:24:10;;;;;;;3.13;2.57;;;;;;;;;;5012811;28;20318;-76
2023/08/09 02:26:38;;;;;;;2.70;2.50;;;;;;;;;;5025668;28;20293;-77
2023/08/09 02:29:05;;;;;;;4.03;2.67;;;;;;;;;;4996646;28;20194;-77
2023/08/09 02:31:31;;;;;;;4.43;2.70;;;;;;;;;;5013055;28;20174;-77
2023/08/09 02:33:57;;;;;;;3.73;2.67;;;;;;;;;;5039228;28;20222;-77
2023/08/09 02:36:24;;;;;;;3.27;2.47;;;;;;;;;;5010426;28;20206;-77
2023/08/09 02:38:51;;;;;;;5.40;2.73;;;;;;;;;;5017103;28;20190;-77
2023/08/09 02:41:17;;;;;;;5.20;3.17;;;;;;;;;;4994787;28;20245;-76
2023/08/09 02:43:43;;;;;;;4.30;2.80;;;;;;;;;;5001068;28;20179;-76
2023/08/09 02:46:12;;;;;;;4.37;2.80;;;;;;;;;;5017139;28;20633;-76
2023/08/09 02:48:39;;;;;;;4.17;2.57;;;;;;;;;;5037324;28;20415;-76
2023/08/09 02:51:05;;;;;;;3.00;2.70;;;;;;;;;;5011344;28;20178;-76
2023/08/09 02:53:38;;;;;;;3.20;2.90;;;;;;;;;;5033414;28;20187;-76
2023/08/09 02:56:04;;;;;;;3.60;2.80;;;;;;;;;;5011483;28;20237;-76
2023/08/09 02:58:30;;;;;;;4.10;2.60;;;;;;;;;;5033348;28;20182;-76
2023/08/09 03:00:56;;;;;;;4.67;2.93;;;;;;;;;;5025441;28;20449;-76
2023/08/09 03:03:22;;;;;;;3.80;2.57;;;;;;;;;;5007077;28;20311;-77
2023/08/09 03:05:49;;;;;;;5.17;2.80;;;;;;;;;;5017569;28;20613;-76
2023/08/09 03:08:15;;;;;;;3.37;2.97;;;;;;;;;;4989984;28;20643;-77
2023/08/09 03:10:42;;;;;;;3.17;2.60;;;;;;;;;;5009875;28;20265;-76
2023/08/09 03:13:08;;;;;;;4.93;2.90;;;;;;;;;;5033975;28;20190;-76
2023/08/09 03:15:34;;;;;;;4.60;3.00;;;;;;;;;;5027064;28;20189;-76
2023/08/09 03:18:01;;;;;;;3.53;2.60;;;;;;;;;;5012679;28;20224;-77
2023/08/09 03:20:27;;;;;;;3.70;2.97;;;;;;;;;;5024280;28;20231;-76
2023/08/09 03:22:57;;;;;;;3.00;2.50;;;;;;;;;;5002011;28;20215;-76
2023/08/09 03:25:24;;;;;;;3.60;2.50;;;;;;;;;;5020428;28;20214;-76
2023/08/09 03:27:50;;;;;;;3.03;2.70;;;;;;;;;;4999555;28;20323;-76
2023/08/09 03:30:18;;;;;;;3.23;2.57;;;;;;;;;;5000118;28;20179;-76
2023/08/09 03:32:44;;;;;;;5.70;2.90;;;;;;;;;;5001420;28;20198;-76
2023/08/09 03:35:11;;;;;;;2.77;2.40;;;;;;;;;;5022138;28;20182;-77
2023/08/09 03:37:38;;;;;;;3.37;2.87;;;;;;;;;;5001131;28;20298;-76
2023/08/09 03:40:07;;;;;;;3.17;2.60;;;;;;;;;;5001322;28;20191;-77
2023/08/09 03:42:33;;;;;;;3.73;2.60;;;;;;;;;;5003984;28;20265;-78
2023/08/09 03:45:00;;;;;;;4.47;2.70;;;;;;;;;;5026568;28;20190;-77
2023/08/09 03:47:27;;;;;;;3.73;2.97;;;;;;;;;;5003504;28;20574;-76
2023/08/09 03:49:53;;;;;;;5.87;2.87;;;;;;;;;;5023915;28;20221;-77
2023/08/09 03:52:19;;;;;;;5.60;2.60;;;;;;;;;;5001798;28;20191;-77
2023/08/09 03:54:52;;;;;;;4.87;2.73;;;;;;;;;;4981534;28;20198;-77
2023/08/09 03:57:21;;;;;;;4.53;2.73;;;;;;;;;;5009904;28;20277;-77
2023/08/09 03:59:49;;;;;;;2.60;2.40;;;;;;;;;;5000776;28;20182;-77
2023/08/09 04:02:15;;;;;;;3.27;2.70;;;;;;;;;;5002305;28;20593;-77
2023/08/09 04:04:42;;;;;;;3.30;2.37;;;;;;;;;;5019910;28;20716;-77
2023/08/09 04:07:08;;;;;;;3.93;2.70;;;;;;;;;;4998237;28;21030;-77
2023/08/09 04:09:35;;;;;;;3.40;2.63;;;;;;;;;;5003358;28;20199;-76
2023/08/09 04:12:03;;;;;;;3.73;2.73;;;;;;;;;;5023213;28;20199;-77
2023/08/09 04:14:30;;;;;;;2.97;2.67;;;;;;;;;;5006277;28;20186;-77
2023/08/09 04:16:56;;;;;;;4.10;2.97;;;;;;;;;;4990946;28;20238;-77
2023/08/09 04:19:26;;;;;;;4.10;3.00;;;;;;;;;;5013731;28;20221;-77
2023/08/09 04:21:53;;;;;;;4.60;3.10;;;;;;;;;;5011377;28;20210;-77
2023/08/09 04:24:19;;;;;;;5.70;3.30;;;;;;;;;;5028804;28;20183;-77
2023/08/09 04:26:46;;;;;;;4.13;2.87;;;;;;;;;;5026830;28;20225;-77
2023/08/09 04:29:12;;;;;;;4.77;3.00;;;;;;;;;;5005187;28;20269;-77
2023/08/09 04:31:38;;;;;;;3.00;2.70;;;;;;;;;;5025520;28;20269;-77
2023/08/09 04:34:05;;;;;;;4.00;2.70;;;;;;;;;;5023694;28;20186;-77
2023/08/09 04:36:31;;;;;;;4.17;3.10;;;;;;;;;;5021033;28;20236;-76
2023/08/09 04:38:57;;;;;;;4.63;2.80;;;;;;;;;;5020230;28;20182;-76
2023/08/09 04:41:24;;;;;;;3.63;2.70;;;;;;;;;;4996667;28;20240;-76
2023/08/09 04:43:50;;;;;;;3.77;2.80;;;;;;;;;;4997974;28;20199;-78
2023/08/09 04:46:16;;;;;;;3.40;2.90;;;;;;;;;;5021731;28;20210;-76
2023/08/09 04:48:43;;;;;;;4.97;2.77;;;;;;;;;;5019411;28;20250;-77
2023/08/09 04:51:09;;;;;;;3.20;2.73;;;;;;;;;;5003466;28;20183;-76
2023/08/09 04:53:36;;;;;;;4.43;2.70;;;;;;;;;;5020813;28;20186;-78
2023/08/09 04:56:03;;;;;;;3.13;2.67;;;;;;;;;;5004020;28;20632;-75
2023/08/09 04:58:32;;;;;;;3.67;2.80;;;;;;;;;;5005688;28;20195;-76
2023/08/09 05:00:59;;;;;;;5.77;3.00;;;;;;;;;;5036868;28;20182;-78
2023/08/09 05:03:26;;;;;;;4.30;3.00;;;;;;;;;;5033964;28;20408;-75
2023/08/09 05:05:52;;;;;;;4.77;2.90;;;;;;;;;;5007293;28;20700;-76
2023/08/09 05:08:19;;;;;;;3.80;2.90;;;;;;;;;;5024826;28;20257;-79
2023/08/09 05:10:45;;;;;;;3.93;2.97;;;;;;;;;;5020887;28;20174;-78
2023/08/09 05:13:11;;;;;;;4.23;3.07;;;;;;;;;;5010452;28;20210;-78
2023/08/09 05:15:37;;;;;;;4.27;3.13;;;;;;;;;;5012646;28;20186;-77
2023/08/09 05:18:04;;;;;;;3.07;2.77;;;;;;;;;;5014290;28;20203;-77
2023/08/09 05:20:30;;;;;;;4.17;3.20;;;;;;;;;;5044518;28;20205;-76
2023/08/09 05:22:56;;;;;;;3.20;2.90;;;;;;;;;;5039636;28;20221;-76
2023/08/09 05:25:22;;;;;;;7.17;3.20;;;;;;;;;;5045166;28;20178;-76
2023/08/09 05:27:49;;;;;;;4.07;2.90;;;;;;;;;;5012422;28;20222;-79
2023/08/09 05:30:16;;;;;;;4.33;2.80;;;;;;;;;;5024338;28;20185;-78
2023/08/09 05:32:42;;;;;;;6.53;3.20;;;;;;;;;;5036488;28;20183;-76
2023/08/09 05:35:08;;;;;;;2.83;2.60;;;;;;;;;;5043338;28;20232;-76
2023/08/09 05:37:35;;;;;;;2.77;2.53;;;;;;;;;;5022612;28;20237;-76
2023/08/09 05:40:01;;;;;;;2.97;2.43;;;;;;;;;;5033075;28;20602;-76
2023/08/09 05:42:27;;;;;;;3.90;2.90;;;;;;;;;;5024802;28;20206;-83
2023/08/09 05:44:53;;;;;;;3.13;2.50;;;;;;;;;;5024225;28;20198;-85
2023/08/09 05:47:19;;;;;;;4.30;2.80;;;;;;;;;;4975932;28;20222;-85
2023/08/09 05:49:45;;;;;;;3.03;2.73;;;;;;;;;;5007854;28;20550;-83
2023/08/09 05:52:11;;;;;;;5.70;2.90;;;;;;;;;;5009715;28;20187;-83
2023/08/09 05:54:37;;;;;;;4.00;2.80;;;;;;;;;;4983291;28;20203;-83
2023/08/09 05:57:04;;;;;;;5.50;2.80;;;;;;;;;;5002960;28;20201;-82
2023/08/09 05:59:30;;;;;;;4.33;2.87;;;;;;;;;;4995827;28;20186;-85
2023/08/09 06:01:56;;;;;;;4.40;2.90;;;;;;;;;;4977773;28;20215;-81
2023/08/09 06:04:24;;;;;;;3.07;2.73;;;;;;;;;;5016221;28;20182;-82
2023/08/09 06:06:50;;;;;;;2.80;2.57;;;;;;;;;;5030991;28;20202;-82
2023/08/09 06:09:17;;;;;;;5.30;3.17;;;;;;;;;;5016282;28;20183;-82
2023/08/09 06:11:43;;;;;;;2.60;2.40;;;;;;;;;;5019301;28;20181;-82
2023/08/09 06:14:09;;;;;;;2.90;2.60;;;;;;;;;;5030149;28;20207;-82
2023/08/09 06:16:36;;;;;;;3.30;2.90;;;;;;;;;;5008099;28;20210;-82
2023/08/09 06:19:02;;;;;;;5.50;2.80;;;;;;;;;;5039310;28;20186;-81
2023/08/09 06:21:28;;;;;;;3.50;2.50;;;;;;;;;;5011008;28;20318;-81
2023/08/09 06:23:54;;;;;;;5.97;2.80;;;;;;;;;;5032181;28;20187;-81
2023/08/09 06:26:20;;;;;;;3.53;2.80;;;;;;;;;;5064787;22;20226;-83
2023/08/09 06:28:48;;;;;;;3.33;2.60;;;;;;;;;;5016218;28;20178;-83
2023/08/09 06:31:16;;;;;;;4.00;2.53;;;;;;;;;;4991753;28;20403;-84
2023/08/09 06:33:42;;;;;;;3.30;2.50;;;;;;;;;;5032578;28;20222;-83
2023/08/09 06:36:09;;;;;;;4.47;2.70;;;;;;;;;;5028241;28;20182;-83
2023/08/09 06:38:35;;;;;;;4.87;3.00;;;;;;;;;;4994406;28;20190;-82
2023/08/09 06:41:01;;;;;;;4.67;2.67;;;;;;;;;;4976945;28;20192;-81
2023/08/09 06:43:29;;;;;;;3.57;2.93;;;;;;;;;;4994370;28;20797;-81
2023/08/09 06:45:58;;;;;;;3.90;2.90;;;;;;;;;;4997173;28;20258;-82
2023/08/09 06:48:24;;;;;;;3.77;2.87;;;;;;;;;;5000839;28;20187;-81
2023/08/09 06:50:50;;;;;;;4.63;2.90;;;;;;;;;;5000951;28;20199;-80
2023/08/09 06:53:16;;;;;;;2.93;2.53;;;;;;;;;;5005284;28;20191;-81
2023/08/09 06:55:43;;;;;;;4.40;3.10;;;;;;;;;;5008087;28;20903;-81
2023/08/09 06:58:09;;;;;;;3.47;2.97;;;;;;;;;;5011496;28;20219;-80
2023/08/09 07:00:37;;;;;;;4.67;2.70;;;;;;;;;;5000425;28;20198;-82
2023/08/09 07:03:03;;;;;;;2.90;2.53;;;;;;;;;;4995338;28;20199;-80
2023/08/09 07:05:29;;;;;;;4.03;2.80;;;;;;;;;;4994889;28;20207;-82
2023/08/09 07:07:56;;;;;;;4.90;2.80;;;;;;;;;;5010965;28;20202;-82
2023/08/09 07:10:24;;;;;;;3.70;2.60;;;;;;;;;;4995156;28;20171;-81
2023/08/09 07:12:50;;;;;;;3.90;2.93;;;;;;;;;;4996550;28;20179;-82
2023/08/09 07:15:17;;;;;;;4.40;2.70;;;;;;;;;;5009809;28;20266;-81
2023/08/09 07:17:43;;;;;;;3.97;2.83;;;;;;;;;;4977852;28;20693;-81
2023/08/09 07:20:14;;;;;;;3.37;2.60;;;;;;;;;;4973182;28;20195;-81
2023/08/09 07:22:41;;;;;;;2.87;2.57;;;;;;;;;;4961261;28;20265;-80
2023/08/09 07:25:08;;;;;;;4.33;3.10;;;;;;;;;;5011285;28;20184;-81
2023/08/09 07:27:34;;;;;;;4.23;2.60;;;;;;;;;;4989680;28;20241;-80
2023/08/09 07:30:01;;;;;;;3.63;2.50;;;;;;;;;;4986482;28;20286;-80
2023/08/09 07:32:27;;;;;;;3.90;2.90;;;;;;;;;;4982158;28;20777;-80
2023/08/09 07:34:53;;;;;;;2.90;2.40;;;;;;;;;;4995638;28;20183;-81
2023/08/09 07:37:20;;;;;;;3.00;2.50;;;;;;;;;;4996277;28;20246;-81
2023/08/09 07:39:46;;;;;;;5.37;2.57;;;;;;;;;;5010728;28;20211;-81
2023/08/09 07:42:12;;;;;;;4.30;2.50;;;;;;;;;;5010237;28;20226;-81
2023/08/09 07:44:38;;;;;;;4.80;2.40;;;;;;;;;;5011072;28;20666;-81
2023/08/09 07:47:04;;;;;;;4.00;2.27;;;;;;;;;;4993640;28;20299;-81
2023/08/09 07:49:30;;;;;;;3.43;2.07;;;;;;;;;;5011090;28;20176;-83
2023/08/09 07:51:57;;;;;;;3.37;2.30;;;;;;;;;;4982504;28;20179;-81
2023/08/09 07:54:23;;;;;;;3.77;2.37;;;;;;;;;;4990675;28;20246;-81
2023/08/09 07:56:49;;;;;;;3.40;2.30;;;;;;;;;;4975985;28;20239;-81
2023/08/09 07:59:15;;;;;;;3.77;2.20;;;;;;;;;;5007791;28;20203;-83
2023/08/09 08:01:41;;;;;;;2.30;2.10;;;;;;;;;;5000800;28;20243;-81
2023/08/09 08:04:07;;;;;;;2.50;2.10;;;;;;;;;;4964435;28;20179;-81
2023/08/09 08:06:34;;;;;;;2.97;2.20;;;;;;;;;;4991547;28;20203;-81
2023/08/09 08:09:00;;;;;;;3.27;2.20;;;;;;;;;;4996108;28;20179;-81
2023/08/09 08:11:26;;;;;;;3.27;2.30;;;;;;;;;;5010843;28;20179;-81
2023/08/09 08:13:52;;;;;;;3.87;2.20;;;;;;;;;;4979672;28;20183;-81
2023/08/09 08:16:19;;;;;;;5.10;2.60;;;;;;;;;;5019342;28;20242;-83
2023/08/09 08:18:46;;;;;;;3.20;2.30;;;;;;;;;;5002294;28;20191;-81
2023/08/09 08:21:12;;;;;;;3.90;2.20;;;;;;;;;;4983326;28;20199;-81
2023/08/09 08:23:38;;;;;;;2.60;2.10;;;;;;;;;;5011878;28;20816;-82
2023/08/09 08:26:05;;;;;;;3.73;2.50;;;;;;;;;;5002974;28;20191;-82
2023/08/09 08:28:31;;;;;;;4.50;2.23;;;;;;;;;;4995423;28;20192;-83
2023/08/09 08:31:00;;;;;;;4.27;2.20;;;;;;;;;;4977842;28;20705;-88
2023/08/09 08:33:27;;;;;;;3.90;2.10;;;;;;;;;;4975520;28;20898;-81
2023/08/09 08:35:53;;;;;;;2.27;2.00;;;;;;;;;;4990709;28;20186;-82
2023/08/09 08:38:19;;;;;;;3.70;2.00;;;;;;;;;;4984526;28;20211;-82
2023/08/09 08:40:46;;;;;;;3.37;2.20;;;;;;;;;;4976894;28;20349;-81
2023/08/09 08:43:13;;;;;;;2.00;1.80;;;;;;;;;;4993010;28;20555;-81
2023/08/09 08:45:41;;;;;;;4.67;1.90;;;;;;;;;;4997870;28;20195;-82
2023/08/09 08:48:12;;;;;;;2.80;1.93;;;;;;;;;;4974892;28;20207;-82
2023/08/09 08:50:39;;;;;;;7.40;2.50;;;;;;;;;;4991708;28;20191;-81
2023/08/09 08:53:06;;;;;;;2.50;1.83;;;;;;;;;;4983284;28;20207;-82
2023/08/09 08:55:32;;;;;;;2.40;1.70;;;;;;;;;;4976089;28;20684;-81
2023/08/09 08:57:58;;;;;;;2.60;1.80;;;;;;;;;;4990180;28;20207;-82
2023/08/09 09:00:25;;;;;;;2.47;2.00;;;;;;;;;;5009230;28;20218;-81
2023/08/09 09:02:51;;;;;;;3.70;1.90;;;;;;;;;;4993019;28;20270;-83
2023/08/09 09:05:17;;;;;;;2.57;1.90;;;;;;;;;;4960587;28;20186;-82
2023/08/09 09:07:50;;;;;;;2.93;1.53;;;;;;;;;;4999094;28;20214;-82
2023/08/09 09:10:16;;;;;;;2.87;1.77;;;;;;;;;;4977305;28;20191;-82
2023/08/09 09:12:43;;;;;;;3.23;2.00;;;;;;;;;;4982957;28;20187;-81
2023/08/09 09:15:10;;;;;;;2.60;2.00;;;;;;;;;;4996818;28;20219;-82
2023/08/09 09:17:40;;;;;;;2.87;1.60;;;;;;;;;;4992158;28;20199;-82
2023/08/09 09:20:10;;;;;;;3.40;1.70;;;;;;;;;;4994659;28;20183;-82
2023/08/09 09:22:37;;;;;;;5.10;2.00;;;;;;;;;;4985103;28;20676;-82
2023/08/09 09:25:07;;;;;;;2.07;1.67;;;;;;;;;;4989268;28;20194;-82
2023/08/09 09:27:33;;;;;;;3.53;1.77;;;;;;;;;;4981254;28;20223;-81
2023/08/09 09:30:05;;;;;;;3.13;1.70;;;;;;;;;;4978372;28;20587;-82
2023/08/09 09:32:35;;;;;;;2.53;1.67;;;;;;;;;;4988113;28;20187;-82
2023/08/09 09:35:01;;;;;;;4.30;1.70;;;;;;;;;;4982776;28;20226;-81
2023/08/09 09:37:29;;;;;;;3.83;1.90;;;;;;;;;;4995259;28;20226;-82
2023/08/09 09:39:56;;;;;;;2.43;1.80;;;;;;;;;;4972172;28;20828;-82
2023/08/09 09:42:29;;;;;;;2.77;2.00;;;;;;;;;;5014811;28;20601;-83
2023/08/09 09:45:02;;;;;;;3.33;1.60;;;;;;;;;;5010078;28;20221;-82
2023/08/09 09:47:29;;;;;;;4.57;1.77;;;;;;;;;;4991339;28;20341;-82
2023/08/09 09:49:56;;;;;;;1.97;1.70;;;;;;;;;;4997301;28;20206;-81
2023/08/09 09:52:23;;;;;;;3.00;2.00;;;;;;;;;;4997951;28;20654;-83
2023/08/09 09:54:49;;;;;;;5.20;1.90;;;;;;;;;;5003692;28;20570;-81
2023/08/09 09:57:15;;;;;;;3.27;1.80;;;;;;;;;;4980522;28;20583;-83
2023/08/09 09:59:41;;;;;;;3.00;1.80;;;;;;;;;;5009972;28;20187;-81
2023/08/09 10:02:10;;;;;;;2.70;1.80;;;;;;;;;;5009905;28;20223;-81
2023/08/09 10:04:36;;;;;;;2.83;1.80;;;;;;;;;;4996228;28;20187;-81
2023/08/09 10:07:03;;;;;;;3.47;1.70;;;;;;;;;;5001420;28;20237;-81
2023/08/09 10:09:29;;;;;;;2.13;1.50;;;;;;;;;;4984751;28;20191;-81
2023/08/09 10:11:57;;;;;;;1.80;1.50;;;;;;;;;;5004518;28;20184;-81
2023/08/09 10:14:26;;;;;;;2.17;1.53;;;;;;;;;;5013233;28;20221;-82
2023/08/09 10:16:52;;;;;;;2.57;1.60;;;;;;;;;;5001145;28;20226;-81
2023/08/09 10:19:22;;;;;;;1.60;1.40;;;;;;;;;;4995395;28;20183;-82
2023/08/09 10:21:52;;;;;;;1.50;1.40;;;;;;;;;;4978668;28;20203;-83
2023/08/09 10:24:18;;;;;;;2.13;1.50;;;;;;;;;;4999514;28;20234;-83
2023/08/09 10:26:46;;;;;;;5.33;1.60;;;;;;;;;;4985418;28;20309;-82
2023/08/09 10:29:13;;;;;;;2.70;1.60;;;;;;;;;;5016220;28;20183;-80
2023/08/09 10:31:54;;;;;;;2.57;1.50;;;;;;;;;;4982060;28;20179;-82
2023/08/09 10:34:34;;;;;;;2.13;1.50;;;;;;;;;;4996694;28;20195;-81
2023/08/09 10:37:01;;;;;;;1.90;1.70;;;;;;;;;;5001433;28;20210;-82
2023/08/09 10:39:28;;;;;;;2.17;1.37;;;;;;;;;;5013050;28;20286;-82
2023/08/09 10:41:54;;;;;;;2.23;1.47;;;;;;;;;;5012737;28;20200;-81
2023/08/09 10:44:32;;;;;;;1.47;1.30;;;;;;;;;;5013079;28;20200;-82
2023/08/09 10:47:03;;;;;;;2.50;1.67;;;;;;;;;;4992297;28;20595;-82
2023/08/09 10:49:33;;;;;;;2.70;1.60;;;;;;;;;;5013303;28;20187;-82
2023/08/09 10:52:11;;;;;;;2.17;1.40;;;;;;;;;;4988815;28;20197;-83
2023/08/09 10:54:38;;;;;;;1.70;1.40;;;;;;;;;;4969644;28;20824;-82
2023/08/09 10:57:11;;;;;;;1.83;1.63;;;;;;;;;;4969037;28;20215;-82
2023/08/09 10:59:38;;;;;;;1.70;1.60;;;;;;;;;;4976418;28;20187;-82
2023/08/09 11:02:04;;;;;;;3.30;1.67;;;;;;;;;;4973612;28;20211;-82
2023/08/09 11:04:31;;;;;;;2.00;1.50;;;;;;;;;;4999723;28;20725;-81
2023/08/09 11:06:58;;;;;;;3.23;1.67;;;;;;;;;;4993369;28;20619;-82
2023/08/09 11:09:24;;;;;;;1.50;1.40;;;;;;;;;;4986894;28;20662;-82
2023/08/09 11:11:51;;;;;;;1.90;1.33;;;;;;;;;;5012188;28;20179;-82
2023/08/09 11:14:18;;;;;;;1.93;1.40;;;;;;;;;;5012174;28;20199;-82
2023/08/09 11:16:44;;;;;;;1.40;1.23;;;;;;;;;;4983569;28;20203;-82
2023/08/09 11:19:17;;;;;;;1.37;1.27;;;;;;;;;;4977688;28;20231;-79
2023/08/09 11:21:45;;;;;;;1.97;1.17;;;;;;;;;;5009435;28;20191;-80
2023/08/09 11:24:13;;;;;;;1.33;1.23;;;;;;;;;;4993666;28;20632;-79
2023/08/09 11:26:45;;;;;;;1.30;1.20;;;;;;;;;;5004689;28;20214;-79
2023/08/09 11:29:12;;;;;;;1.60;1.40;;;;;;;;;;4993949;28;20193;-80
2023/08/09 11:31:45;;;;;;;1.93;1.50;;;;;;;;;;5006800;28;20659;-80
2023/08/09 11:34:11;;;;;;;3.00;1.77;;;;;;;;;;5011211;28;20195;-80
2023/08/09 11:36:40;;;;;;;2.27;1.40;;;;;;;;;;4989426;28;20210;-80
2023/08/09 11:39:08;;;;;;;1.30;1.10;;;;;;;;;;4989775;28;20539;-81
2023/08/09 11:41:42;;;;;;;2.40;1.43;;;;;;;;;;5012201;28;20189;-80
2023/08/09 11:44:09;;;;;;;2.67;1.20;;;;;;;;;;4998007;28;20217;-81
2023/08/09 11:46:35;;;;;;;3.87;1.40;;;;;;;;;;4990486;28;20528;-80
2023/08/09 11:49:03;;;;;;;1.53;1.43;;;;;;;;;;4997809;28;20204;-81
2023/08/09 11:51:34;;;;;;;1.67;1.43;;;;;;;;;;4977277;28;20248;-80
2023/08/09 11:54:00;;;;;;;2.30;1.23;;;;;;;;;;5003278;28;20248;-81
2023/08/09 11:56:31;;;;;;;1.73;1.17;;;;;;;;;;5010043;28;20251;-80
2023/08/09 11:58:59;;;;;;;1.20;1.10;;;;;;;;;;5006902;28;20273;-80
2023/08/09 12:01:26;;;;;;;1.20;1.10;;;;;;;;;;4966087;28;20187;-80
2023/08/09 12:03:53;;;;;;;1.20;1.10;;;;;;;;;;4999872;28;20201;-80
2023/08/09 12:06:34;;;;;;;1.10;1.00;;;;;;;;;;5008651;28;20767;-80
2023/08/09 12:09:00;;;;;;;1.20;1.10;;;;;;;;;;5014891;28;20182;-82
2023/08/09 12:11:26;;;;;;;2.20;1.33;;;;;;;;;;4970133;28;20190;-81
2023/08/09 12:13:52;;;;;;;1.37;1.20;;;;;;;;;;4983812;28;20191;-79
2023/08/09 12:16:19;;;;;;;1.17;1.00;;;;;;;;;;5000083;28;20542;-80
2023/08/09 12:18:45;;;;;;;1.20;1.00;;;;;;;;;;5010704;28;20179;-81
2023/08/09 12:21:11;;;;;;;1.53;1.07;;;;;;;;;;5003346;28;20183;-80
2023/08/09 12:23:38;;;;;;;1.20;1.10;;;;;;;;;;5010018;28;20206;-81
2023/08/09 12:26:07;;;;;;;1.80;1.03;;;;;;;;;;5010038;28;20194;-80
2023/08/09 12:28:34;;;;;;;1.70;1.00;;;;;;;;;;5061798;22;20243;-76
2023/08/09 12:31:00;;;;;;;1.37;0.80;;;;;;;;;;5009678;28;20258;-79
2023/08/09 12:33:27;;;;;;;1.10;1.00;;;;;;;;;;4996524;28;20194;-78
2023/08/09 12:35:53;;;;;;;1.07;1.00;;;;;;;;;;4991032;28;20183;-79
2023/08/09 12:38:19;;;;;;;1.37;0.90;;;;;;;;;;5003084;28;20207;-79
2023/08/09 12:40:48;;;;;;;0.90;0.90;;;;;;;;;;5003306;28;20563;-76
2023/08/09 12:43:14;;;;;;;0.90;0.90;;;;;;;;;;4996634;28;20701;-76
2023/08/09 12:45:40;;;;;;;1.87;1.10;;;;;;;;;;5025166;28;20189;-77
2023/08/09 12:48:06;;;;;;;1.13;0.90;;;;;;;;;;4983693;28;20214;-75
2023/08/09 12:50:32;;;;;;;0.70;0.70;;;;;;;;;;4990955;28;20194;-76
2023/08/09 12:52:59;;;;;;;2.50;0.90;;;;;;;;;;5012344;28;20187;-77
2023/08/09 12:55:25;;;;;;;1.00;0.90;;;;;;;;;;5012297;28;20194;-77
2023/08/09 12:57:51;;;;;;;0.70;0.70;;;;;;;;;;5012878;28;20214;-77
2023/08/09 13:00:20;;;;;;;0.87;0.80;;;;;;;;;;5013816;28;20184;-77
2023/08/09 13:02:47;;;;;;;1.00;0.93;;;;;;;;;;4995568;28;20211;-76
2023/08/09 13:05:13;;;;;;;1.50;0.80;;;;;;;;;;5007438;28;20267;-79
2023/08/09 13:07:39;;;;;;;2.27;0.70;;;;;;;;;;5011007;28;20209;-79
2023/08/09 13:10:06;;;;;;;0.73;0.70;;;;;;;;;;5008106;28;20277;-75
2023/08/09 13:12:32;;;;;;;1.10;1.00;;;;;;;;;;5013193;28;20307;-75
2023/08/09 13:14:58;;;;;;;0.70;0.70;;;;;;;;;;5003887;28;20211;-75
2023/08/09 13:17:24;;;;;;;0.60;0.60;;;;;;;;;;5012148;28;20305;-78
2023/08/09 13:19:50;;;;;;;0.80;0.70;;;;;;;;;;5013133;28;20187;-78
2023/08/09 13:22:17;;;;;;;0.63;0.63;;;;;;;;;;5012406;28;20317;-76
2023/08/09 13:24:44;;;;;;;0.60;0.60;;;;;;;;;;5018284;28;20182;-76
2023/08/09 13:27:11;;;;;;;1.37;0.80;;;;;;;;;;5007442;28;20731;-76
2023/08/09 13:29:37;;;;;;;3.27;0.80;;;;;;;;;;5016175;28;20265;-76
2023/08/09 13:32:03;;;;;;;1.70;0.80;;;;;;;;;;4995816;28;20199;-76
2023/08/09 13:34:29;;;;;;;0.60;0.60;;;;;;;;;;4999778;28;20277;-76
2023/08/09 13:36:56;;;;;;;1.60;0.70;;;;;;;;;;5017501;28;20207;-76
2023/08/09 13:39:22;;;;;;;0.67;0.67;;;;;;;;;;5017422;28;20187;-76
2023/08/09 13:41:48;;;;;;;0.97;0.70;;;;;;;;;;5001488;28;20267;-76
2023/08/09 13:44:14;;;;;;;0.70;0.70;;;;;;;;;;5013172;28;20183;-76
2023/08/09 13:46:41;;;;;;;0.50;0.50;;;;;;;;;;5014846;28;20190;-76
2023/08/09 13:49:07;;;;;;;0.60;0.60;;;;;;;;;;5015718;28;20213;-76
2023/08/09 13:51:33;;;;;;;0.70;0.70;;;;;;;;;;5015028;28;20207;-76
2023/08/09 13:54:00;;;;;;;0.70;0.70;;;;;;;;;;5015508;28;20725;-76
2023/08/09 13:56:26;;;;;;;0.80;0.80;;;;;;;;;;5015244;28;20194;-76
2023/08/09 13:58:52;;;;;;;1.50;0.90;;;;;;;;;;5021646;28;20270;-76
2023/08/09 14:01:18;;;;;;;0.70;0.70;;;;;;;;;;5012386;28;20245;-76
2023/08/09 14:03:45;;;;;;;0.70;0.70;;;;;;;;;;5012663;28;20218;-76
2023/08/09 14:06:11;;;;;;;1.90;0.80;;;;;;;;;;5012965;28;20175;-76
2023/08/09 14:08:37;;;;;;;1.00;0.90;;;;;;;;;;5001249;28;20210;-76
2023/08/09 14:11:03;;;;;;;1.00;0.80;;;;;;;;;;5013121;28;20181;-76
2023/08/09 14:13:29;;;;;;;0.70;0.70;;;;;;;;;;5013712;28;20554;-77
2023/08/09 14:15:57;;;;;;;0.77;0.77;;;;;;;;;;5012751;28;20189;-78
2023/08/09 14:18:24;;;;;;;0.80;0.80;;;;;;;;;;5009192;28;20202;-78
2023/08/09 14:20:50;;;;;;;1.10;1.00;;;;;;;;;;5013316;28;20235;-78
2023/08/09 14:23:16;;;;;;;1.00;0.80;;;;;;;;;;5013298;28;20240;-76
2023/08/09 14:25:43;;;;;;;2.30;0.83;;;;;;;;;;5013407;28;20181;-76
2023/08/09 14:28:09;;;;;;;2.57;1.07;;;;;;;;;;4999395;28;20291;-76
2023/08/09 14:30:35;;;;;;;0.90;0.90;;;;;;;;;;5011215;28;20181;-76
2023/08/09 14:33:04;;;;;;;1.20;0.80;;;;;;;;;;5012390;28;20201;-76
2023/08/09 14:35:30;;;;;;;0.80;0.80;;;;;;;;;;5012776;28;20188;-76
2023/08/09 14:37:56;;;;;;;0.97;0.80;;;;;;;;;;5013682;28;20223;-76
2023/08/09 14:40:24;;;;;;;0.80;0.80;;;;;;;;;;5012549;28;20186;-76
2023/08/09 14:42:50;;;;;;;0.87;0.87;;;;;;;;;;5013699;28;20283;-76